Time;durP1;ratioP1;P1;durP2;ratioP2;P2;SDS_P1;SDS_P2;PMS_P1;PMS_P2;Temp;Humidity;BMP_temperature;BMP_pressure;BME280_temperature;BME280_humidity;BME280_pressure;Samples;Min_cycle;Max_cycle;Signal;HPM_P1;HPM_P2
2022/07/21 00:00:24;;;;;;;1.20;0.80;;;;;;;16.66;72.30;98605.47;5053175;28;20025;-61
2022/07/21 00:02:50;;;;;;;0.70;0.70;;;;;;;16.70;72.10;98601.34;5051422;28;20131;-62
2022/07/21 00:05:16;;;;;;;3.55;1.20;;;;;;;16.70;72.41;98601.34;5052408;28;20044;-60
2022/07/21 00:07:42;;;;;;;2.38;0.95;;;;;;;16.50;72.22;98574.13;5052588;28;20501;-61
2022/07/21 00:10:08;;;;;;;0.60;0.60;;;;;;;16.62;73.16;98593.34;5052753;28;20051;-61
2022/07/21 00:12:34;;;;;;;1.25;0.77;;;;;;;16.66;73.25;98605.47;5052545;28;20462;-61
2022/07/21 00:14:59;;;;;;;1.10;0.80;;;;;;;16.61;73.08;98597.09;5051271;28;20024;-60
2022/07/21 00:17:25;;;;;;;1.33;0.68;;;;;;;16.65;72.70;98604.63;5053014;28;20033;-63
2022/07/21 00:19:51;;;;;;;1.67;0.90;;;;;;;16.62;72.98;98604.16;5052869;28;20083;-60
2022/07/21 00:22:16;;;;;;;4.05;1.52;;;;;;;16.64;73.14;98610.25;5052210;28;20033;-61
2022/07/21 00:24:42;;;;;;;2.45;0.80;;;;;;;16.62;72.94;98607.72;5052391;28;20388;-61
2022/07/21 00:27:07;;;;;;;1.55;0.70;;;;;;;16.61;73.14;98613.31;5052684;28;20528;-61
2022/07/21 00:29:33;;;;;;;3.90;1.10;;;;;;;16.59;73.30;98609.97;5052012;28;20380;-61
2022/07/21 00:32:00;;;;;;;2.00;0.70;;;;;;;16.52;73.19;98600.97;5052098;28;20033;-61
2022/07/21 00:34:25;;;;;;;1.88;1.08;;;;;;;16.56;73.48;98608.50;5051145;28;20040;-61
2022/07/21 00:36:51;;;;;;;2.35;0.82;;;;;;;16.56;72.83;98603.09;5050986;28;20028;-61
2022/07/21 00:39:16;;;;;;;2.00;1.02;;;;;;;16.59;72.69;98599.16;5050755;28;20033;-61
2022/07/21 00:41:42;;;;;;;2.45;0.70;;;;;;;16.60;72.38;98598.97;5051824;28;20033;-61
2022/07/21 00:44:22;;;;;;;1.02;0.80;;;;;;;16.72;72.69;98611.94;5050365;28;20065;-60
2022/07/21 00:46:48;;;;;;;1.33;1.10;;;;;;;16.47;72.47;98575.38;5051764;28;20117;-61
2022/07/21 00:49:13;;;;;;;1.00;0.60;;;;;;;16.65;72.83;98607.31;5051997;28;20532;-61
2022/07/21 00:51:38;;;;;;;0.75;0.60;;;;;;;16.66;72.52;98602.78;5051946;28;20082;-61
2022/07/21 00:54:04;;;;;;;1.02;0.70;;;;;;;16.52;72.58;98579.34;5051643;28;20025;-61
2022/07/21 00:56:30;;;;;;;1.85;0.55;;;;;;;16.63;72.44;98597.72;5051747;28;20040;-60
2022/07/21 00:58:55;;;;;;;1.40;0.90;;;;;;;16.62;71.99;98601.47;5050600;28;20035;-61
2022/07/21 01:01:21;;;;;;;1.88;0.50;;;;;;;16.59;72.87;98597.31;5050145;28;20141;-61
2022/07/21 01:03:47;;;;;;;1.58;0.60;;;;;;;16.62;72.69;98606.88;5051841;28;20059;-60
2022/07/21 01:06:12;;;;;;;4.38;0.60;;;;;;;16.64;72.63;98604.84;5051631;28;20036;-62
2022/07/21 01:08:38;;;;;;;0.60;0.60;;;;;;;16.58;72.68;98587.53;5051573;28;20033;-61
2022/07/21 01:11:04;;;;;;;1.30;0.65;;;;;;;16.64;72.97;98600.25;5050350;28;20051;-60
2022/07/21 01:13:30;;;;;;;1.23;0.60;;;;;;;16.66;73.38;98608.19;5049974;28;20372;-60
2022/07/21 01:15:56;;;;;;;1.30;0.70;;;;;;;16.68;73.11;98603.41;5050606;28;20037;-60
2022/07/21 01:18:21;;;;;;;0.75;0.55;;;;;;;16.70;73.20;98600.50;5050533;28;20033;-62
2022/07/21 01:20:52;;;;;;;1.17;0.73;;;;;;;16.69;73.01;98599.69;5051183;28;20539;-61
2022/07/21 01:23:18;;;;;;;1.05;0.50;;;;;;;16.62;73.61;98596.06;5049910;28;20029;-61
2022/07/21 01:25:51;;;;;;;1.95;0.80;;;;;;;16.71;74.04;98599.47;5033600;28;20064;-60
2022/07/21 01:28:16;;;;;;;1.33;0.60;;;;;;;16.69;74.13;98596.13;5050065;28;20079;-62
2022/07/21 01:30:42;;;;;;;1.13;0.73;;;;;;;16.69;73.54;98605.09;5051263;28;20065;-61
2022/07/21 01:33:08;;;;;;;2.20;1.00;;;;;;;16.69;73.52;98604.22;5051325;28;20086;-61
2022/07/21 01:35:34;;;;;;;1.73;0.80;;;;;;;16.53;73.61;98571.06;5051399;28;20044;-60
2022/07/21 01:38:00;;;;;;;0.98;0.80;;;;;;;16.70;73.06;98606.75;5051309;28;20033;-61
2022/07/21 01:43:10;;;;;;;0.95;0.70;;;;;;;16.72;73.02;98596.59;5051144;28;20108;-61
2022/07/21 01:45:35;;;;;;;1.88;0.70;;;;;;;16.76;73.16;98603.28;5051211;28;20517;-61
2022/07/21 01:48:01;;;;;;;1.10;0.90;;;;;;;16.71;72.94;98586.81;5051066;28;20481;-63
2022/07/21 01:50:26;;;;;;;2.67;0.80;;;;;;;16.77;72.79;98588.72;5051566;28;20440;-61
2022/07/21 01:53:01;;;;;;;0.63;0.63;;;;;;;16.88;72.89;98600.03;5051227;28;20064;-60
2022/07/21 01:55:28;;;;;;;1.85;0.90;;;;;;;16.79;72.53;98594.78;5051496;28;20037;-61
2022/07/21 01:57:53;;;;;;;1.30;0.90;;;;;;;16.82;72.34;98600.81;5050879;28;20029;-61
2022/07/21 02:00:19;;;;;;;1.02;0.77;;;;;;;16.80;72.29;98592.91;5051120;28;20354;-61
2022/07/21 02:02:45;;;;;;;1.13;0.70;;;;;;;16.82;72.36;98600.81;5051163;28;20053;-61
2022/07/21 02:05:11;;;;;;;1.23;0.73;;;;;;;16.82;72.17;98598.97;5049790;28;20048;-61
2022/07/21 02:07:36;;;;;;;1.15;1.00;;;;;;;16.85;72.21;98605.81;5050778;28;20037;-60
2022/07/21 02:10:02;;;;;;;2.42;0.80;;;;;;;16.86;72.47;98612.91;5051035;28;20116;-63
2022/07/21 02:12:28;;;;;;;0.85;0.80;;;;;;;16.88;72.08;98605.44;5051462;28;20040;-61
2022/07/21 02:14:54;;;;;;;1.42;0.80;;;;;;;16.72;72.22;98571.41;5049774;28;20033;-61
2022/07/21 02:17:19;;;;;;;1.13;0.93;;;;;;;16.91;72.56;98595.06;5050926;28;20056;-61
2022/07/21 02:19:45;;;;;;;1.25;1.13;;;;;;;16.83;72.63;98587.13;5050843;28;20113;-60
2022/07/21 02:22:10;;;;;;;1.80;1.17;;;;;;;16.87;72.76;98591.09;5050811;28;20025;-60
2022/07/21 02:24:35;;;;;;;1.48;1.17;;;;;;;16.90;73.00;98598.00;5049585;28;20485;-61
2022/07/21 02:27:02;;;;;;;3.60;0.90;;;;;;;16.89;72.71;98591.72;5049805;28;20439;-61
2022/07/21 02:29:27;;;;;;;1.15;0.90;;;;;;;16.87;72.97;98591.09;5052172;28;20559;-61
2022/07/21 02:31:53;;;;;;;1.58;0.82;;;;;;;16.72;73.00;98564.16;5054818;28;20086;-60
2022/07/21 02:34:18;;;;;;;2.35;0.98;;;;;;;16.89;72.84;98599.03;5054537;28;20418;-59
2022/07/21 02:36:44;;;;;;;1.40;1.10;;;;;;;16.88;72.78;98583.81;5052940;28;20037;-60
2022/07/21 02:39:10;;;;;;;2.35;1.90;;;;;;;16.78;72.80;98557.97;5054363;28;20032;-59
2022/07/21 02:41:36;;;;;;;2.03;0.90;;;;;;;16.95;73.12;98590.13;5054232;28;20107;-60
2022/07/21 02:44:01;;;;;;;1.10;0.88;;;;;;;17.00;72.80;98589.53;5054208;28;20037;-61
2022/07/21 02:46:27;;;;;;;2.72;1.10;;;;;;;17.05;72.50;98592.53;5054110;28;20037;-60
2022/07/21 02:48:52;;;;;;;1.05;0.77;;;;;;;17.06;72.56;98586.09;5054046;28;20043;-60
2022/07/21 02:51:18;;;;;;;1.75;0.93;;;;;;;17.06;72.13;98581.50;5052578;28;20120;-60
2022/07/21 02:53:43;;;;;;;1.65;0.95;;;;;;;17.08;72.10;98584.84;5053983;28;20029;-60
2022/07/21 02:56:09;;;;;;;3.08;1.00;;;;;;;17.00;72.09;98571.47;5052581;28;20446;-59
2022/07/21 02:58:34;;;;;;;1.67;0.80;;;;;;;17.09;72.37;98585.69;5054020;28;20033;-64
2022/07/21 03:01:05;;;;;;;1.70;0.93;;;;;;;17.08;72.35;98590.25;5053836;28;20508;-59
2022/07/21 03:03:33;;;;;;;3.92;1.10;;;;;;;17.05;72.96;98590.63;5052954;28;20049;-60
2022/07/21 03:05:59;;;;;;;4.07;0.95;;;;;;;16.85;72.84;98557.16;5053726;28;20061;-61
2022/07/21 03:08:26;;;;;;;3.50;1.27;;;;;;;17.04;73.40;98583.56;5053484;28;20052;-61
2022/07/21 03:10:51;;;;;;;1.13;0.80;;;;;;;17.06;73.55;98580.66;5053544;28;20068;-60
2022/07/21 03:13:17;;;;;;;1.27;0.85;;;;;;;16.95;73.38;98560.38;5052421;28;20453;-61
2022/07/21 03:15:43;;;;;;;1.10;1.00;;;;;;;17.11;73.35;98578.22;5053451;28;20029;-60
2022/07/21 03:18:09;;;;;;;1.10;0.70;;;;;;;17.09;73.69;98577.56;5053297;28;20029;-62
2022/07/21 03:20:37;;;;;;;2.03;1.05;;;;;;;17.13;73.55;98591.53;5053840;28;20035;-61
2022/07/21 03:23:03;;;;;;;2.45;1.05;;;;;;;17.11;73.86;98577.34;5053828;28;20048;-60
2022/07/21 03:25:30;;;;;;;1.92;1.02;;;;;;;17.12;73.57;98587.13;5051975;28;20029;-62
2022/07/21 03:27:56;;;;;;;2.45;0.80;;;;;;;17.12;73.77;98582.56;5053568;28;20040;-60
2022/07/21 03:30:22;;;;;;;0.90;0.90;;;;;;;17.13;73.63;98588.84;5053526;28;20025;-60
2022/07/21 03:32:49;;;;;;;2.03;0.80;;;;;;;17.12;73.73;98579.88;5051779;28;20033;-60
2022/07/21 03:35:15;;;;;;;1.95;0.90;;;;;;;17.03;73.70;98567.53;5051943;28;20086;-60
2022/07/21 03:37:47;;;;;;;1.55;0.90;;;;;;;17.13;74.19;98588.84;5053288;28;20029;-60
2022/07/21 03:40:15;;;;;;;1.65;0.70;;;;;;;17.08;74.16;98587.53;5052667;28;20021;-61
2022/07/21 03:42:40;;;;;;;1.75;0.88;;;;;;;16.95;74.03;98573.91;5052921;28;20116;-60
2022/07/21 03:45:07;;;;;;;1.20;1.00;;;;;;;16.91;74.59;98583.44;5053086;28;20028;-61
2022/07/21 03:47:34;;;;;;;1.00;0.90;;;;;;;16.92;75.06;98590.53;5053405;28;20027;-61
2022/07/21 03:49:59;;;;;;;1.27;0.70;;;;;;;16.87;74.95;98585.69;5053157;28;20028;-60
2022/07/21 03:52:25;;;;;;;1.50;0.80;;;;;;;16.63;74.97;98546.38;5052883;28;20056;-61
2022/07/21 03:55:07;;;;;;;1.35;0.70;;;;;;;16.81;75.17;98578.38;5052676;28;20115;-61
2022/07/21 03:57:35;;;;;;;1.60;1.10;;;;;;;16.76;75.09;98576.25;5053324;28;20086;-60
2022/07/21 04:00:00;;;;;;;1.60;0.85;;;;;;;16.73;75.23;98571.22;5052870;28;20028;-61
2022/07/21 04:02:26;;;;;;;1.45;1.25;;;;;;;16.70;75.54;98571.63;5051412;28;20053;-61
2022/07/21 04:04:51;;;;;;;1.65;1.15;;;;;;;16.75;75.39;98579.97;5051170;28;20041;-62
2022/07/21 04:07:17;;;;;;;1.00;1.00;;;;;;;16.77;75.49;98575.22;5052680;28;20468;-61
2022/07/21 04:09:42;;;;;;;1.05;0.95;;;;;;;16.72;75.38;98558.75;5053014;28;20373;-60
2022/07/21 04:12:08;;;;;;;1.83;1.20;;;;;;;16.87;75.10;98572.16;5051598;28;20114;-61
2022/07/21 04:14:33;;;;;;;1.00;1.00;;;;;;;16.94;75.21;98583.88;5051264;28;20047;-59
2022/07/21 04:16:59;;;;;;;1.85;1.23;;;;;;;17.03;75.19;98584.59;5052808;28;20037;-60
2022/07/21 04:19:24;;;;;;;1.27;1.17;;;;;;;17.06;74.95;98570.69;5052556;28;20028;-60
2022/07/21 04:21:50;;;;;;;3.45;1.60;;;;;;;17.16;74.82;98583.84;5052104;28;20473;-61
2022/07/21 04:24:15;;;;;;;3.45;1.60;;;;;;;17.22;74.40;98579.53;5052268;28;20106;-60
2022/07/21 04:26:40;;;;;;;1.58;1.45;;;;;;;17.27;74.36;98585.19;5052296;28;20047;-60
2022/07/21 04:29:07;;;;;;;1.90;1.63;;;;;;;17.34;73.80;98583.34;5051145;28;20308;-60
2022/07/21 04:31:32;;;;;;;3.15;1.90;;;;;;;17.33;73.52;98586.25;5051971;28;20444;-61
2022/07/21 04:33:58;;;;;;;2.50;1.95;;;;;;;17.22;73.63;98560.59;5052033;28;20056;-62
2022/07/21 04:36:23;;;;;;;2.63;1.77;;;;;;;17.43;73.44;98589.44;5050708;28;20031;-60
2022/07/21 04:38:49;;;;;;;1.77;1.67;;;;;;;17.45;72.73;98587.34;5051959;28;20028;-62
2022/07/21 04:41:14;;;;;;;2.45;2.10;;;;;;;17.51;72.63;98601.97;5052126;28;20102;-62
2022/07/21 04:43:40;;;;;;;2.20;2.00;;;;;;;17.58;72.55;98589.31;5051872;28;20037;-61
2022/07/21 04:46:06;;;;;;;2.65;1.77;;;;;;;17.69;71.88;98584.38;5052500;28;20028;-61
2022/07/21 04:48:32;;;;;;;2.10;1.85;;;;;;;17.89;71.26;98577.19;5051771;28;20377;-60
2022/07/21 04:50:57;;;;;;;6.25;2.20;;;;;;;17.98;70.76;98582.41;5051759;28;20041;-61
2022/07/21 04:53:22;;;;;;;3.22;1.60;;;;;;;17.91;70.38;98553.44;5051628;28;20025;-61
2022/07/21 04:55:49;;;;;;;2.60;2.38;;;;;;;18.21;70.30;98580.22;5050332;28;20113;-61
2022/07/21 04:58:15;;;;;;;3.15;2.13;;;;;;;18.33;69.29;98594.00;5050135;28;20556;-61
2022/07/21 05:00:41;;;;;;;2.13;1.92;;;;;;;18.40;69.36;98574.22;5051968;28;20132;-62
2022/07/21 05:03:07;;;;;;;1.85;1.75;;;;;;;18.39;68.43;98573.38;5050349;28;20072;-61
2022/07/21 05:05:32;;;;;;;3.65;2.55;;;;;;;18.36;68.30;98555.66;5051153;28;20133;-61
2022/07/21 05:07:58;;;;;;;1.80;1.70;;;;;;;18.63;67.92;98584.69;5051449;28;20178;-61
2022/07/21 05:10:24;;;;;;;2.17;1.80;;;;;;;18.68;67.35;98582.19;5051724;28;20441;-61
2022/07/21 05:12:49;;;;;;;3.35;2.00;;;;;;;18.60;67.77;98575.06;5051219;28;20039;-62
2022/07/21 05:15:15;;;;;;;3.58;2.13;;;;;;;18.68;67.18;98584.03;5033724;28;20041;-62
2022/07/21 05:17:41;;;;;;;1.88;1.77;;;;;;;18.69;67.15;98583.84;5051764;28;20025;-61
2022/07/21 05:20:08;;;;;;;2.35;1.77;;;;;;;18.76;67.51;98562.97;5051282;28;20503;-60
2022/07/21 05:22:34;;;;;;;1.98;1.77;;;;;;;19.50;65.28;98581.06;5050269;28;20083;-62
2022/07/21 05:24:59;;;;;;;1.70;1.60;;;;;;;20.43;62.07;98580.94;5051444;28;20416;-62
2022/07/21 05:27:25;;;;;;;1.98;1.65;;;;;;;21.23;59.44;98557.72;5051344;28;20420;-62
2022/07/21 05:29:50;;;;;;;1.73;1.63;;;;;;;23.39;53.57;98576.53;5051097;28;20033;-62
2022/07/21 05:32:16;;;;;;;2.10;1.90;;;;;;;24.97;49.07;98570.03;5051232;28;20078;-62
2022/07/21 05:34:41;;;;;;;2.53;1.70;;;;;;;25.39;47.38;98575.03;5051614;28;20029;-62
2022/07/21 05:37:07;;;;;;;2.03;1.50;;;;;;;25.24;47.68;98578.38;5051164;28;20037;-62
2022/07/21 05:39:33;;;;;;;3.47;1.60;;;;;;;24.83;47.69;98583.19;5051127;28;20122;-61
2022/07/21 05:41:58;;;;;;;1.45;1.30;;;;;;;24.45;48.52;98586.38;5051276;28;20485;-61
2022/07/21 05:44:24;;;;;;;1.60;1.50;;;;;;;24.11;49.19;98586.25;5049896;28;20033;-61
2022/07/21 05:46:49;;;;;;;2.05;1.50;;;;;;;23.81;50.36;98579.09;5051105;28;20029;-60
2022/07/21 05:49:14;;;;;;;3.08;1.50;;;;;;;23.57;50.82;98592.78;5049605;28;20060;-61
2022/07/21 05:51:40;;;;;;;5.43;1.90;;;;;;;25.78;44.59;98593.38;5051355;28;20040;-61
2022/07/21 05:54:05;;;;;;;5.68;1.73;;;;;;;26.99;40.43;98586.19;5050071;28;20032;-61
2022/07/21 05:56:31;;;;;;;2.22;1.73;;;;;;;26.13;41.41;98570.25;5049648;28;20036;-61
2022/07/21 05:58:56;;;;;;;4.35;1.70;;;;;;;25.63;43.76;98604.97;5050900;28;20098;-62
2022/07/21 06:01:22;;;;;;;1.80;1.48;;;;;;;24.79;45.11;98593.84;5049743;28;20484;-60
2022/07/21 06:03:49;;;;;;;2.78;1.40;;;;;;;24.09;47.18;98602.09;5051593;28;20454;-60
2022/07/21 06:06:17;;;;;;;1.85;1.55;;;;;;;23.45;48.47;98605.66;5055286;28;20079;-59
2022/07/21 06:08:46;;;;;;;2.65;1.58;;;;;;;23.21;49.48;98608.34;5055124;28;20116;-60
2022/07/21 06:11:14;;;;;;;1.95;1.70;;;;;;;23.06;49.79;98606.91;5053762;28;20028;-62
2022/07/21 06:13:39;;;;;;;1.98;1.77;;;;;;;23.08;49.23;98599.31;5054987;28;20036;-61
2022/07/21 06:16:06;;;;;;;2.42;1.70;;;;;;;23.15;50.10;98599.19;5054912;28;20037;-61
2022/07/21 06:18:31;;;;;;;2.03;1.35;;;;;;;23.58;47.95;98588.19;5054567;28;20393;-61
2022/07/21 06:20:57;;;;;;;2.35;1.50;;;;;;;24.66;44.92;98594.94;5054790;28;20033;-61
2022/07/21 06:23:22;;;;;;;1.40;1.30;;;;;;;25.04;44.83;98603.53;5054796;28;20040;-61
2022/07/21 06:25:48;;;;;;;3.38;1.38;;;;;;;24.68;45.63;98603.75;5054512;28;20032;-60
2022/07/21 06:28:14;;;;;;;5.88;1.55;;;;;;;24.34;46.34;98609.97;5053513;28;20033;-62
2022/07/21 06:30:39;;;;;;;1.92;1.73;;;;;;;24.19;46.70;98605.03;5054208;28;20037;-63
2022/07/21 06:33:05;;;;;;;2.05;1.88;;;;;;;24.42;46.78;98614.22;5054542;28;20115;-60
2022/07/21 06:35:31;;;;;;;1.95;1.50;;;;;;;24.96;44.71;98614.88;5053386;28;20116;-61
2022/07/21 06:37:56;;;;;;;4.45;1.30;;;;;;;24.88;44.39;98616.97;5054274;28;20110;-60
2022/07/21 06:40:22;;;;;;;2.13;1.30;;;;;;;24.50;45.15;98618.47;5053012;28;20037;-60
2022/07/21 06:42:47;;;;;;;3.60;1.20;;;;;;;24.14;45.74;98615.88;5053206;28;20422;-64
2022/07/21 06:45:13;;;;;;;2.72;1.48;;;;;;;23.85;46.00;98634.09;5054383;28;20116;-61
2022/07/21 06:47:38;;;;;;;1.77;1.50;;;;;;;23.35;47.43;98626.16;5053917;28;20094;-62
2022/07/21 06:50:04;;;;;;;7.03;1.60;;;;;;;22.70;49.78;98636.03;5054054;28;20036;-61
2022/07/21 06:52:31;;;;;;;1.60;1.27;;;;;;;22.06;51.39;98636.44;5054141;28;20040;-60
2022/07/21 06:54:57;;;;;;;2.17;1.50;;;;;;;21.43;53.69;98649.22;5053876;28;20116;-61
2022/07/21 06:57:23;;;;;;;1.90;1.45;;;;;;;21.03;55.63;98643.09;5054227;28;20033;-61
2022/07/21 06:59:48;;;;;;;2.85;1.63;;;;;;;20.66;56.68;98645.59;5053978;28;20040;-61
2022/07/21 07:02:14;;;;;;;2.65;2.00;;;;;;;20.41;57.67;98621.91;5054258;28;20115;-61
2022/07/21 07:04:39;;;;;;;1.73;1.55;;;;;;;20.62;57.10;98647.09;5053640;28;20037;-60
2022/07/21 07:07:05;;;;;;;5.00;1.40;;;;;;;20.74;57.77;98658.09;5052899;28;20032;-61
2022/07/21 07:09:31;;;;;;;3.25;1.75;;;;;;;21.03;54.83;98664.84;5052528;28;20354;-61
2022/07/21 07:12:03;;;;;;;1.50;1.40;;;;;;;20.90;54.94;98664.94;5053895;28;20056;-62
2022/07/21 07:14:33;;;;;;;3.45;1.50;;;;;;;20.66;56.16;98670.06;5053677;28;20036;-62
2022/07/21 07:17:00;;;;;;;2.63;1.40;;;;;;;20.53;57.50;98675.59;5052247;28;20076;-61
2022/07/21 07:19:26;;;;;;;3.42;1.63;;;;;;;20.30;58.02;98680.50;5053606;28;20119;-62
2022/07/21 07:21:52;;;;;;;1.65;1.50;;;;;;;20.10;58.16;98672.44;5054015;28;20040;-60
2022/07/21 07:24:18;;;;;;;6.20;1.77;;;;;;;20.00;58.19;98661.19;5053584;28;20048;-61
2022/07/21 07:26:43;;;;;;;3.78;1.40;;;;;;;19.75;59.54;98664.56;5052417;28;20032;-61
2022/07/21 07:29:09;;;;;;;1.65;1.50;;;;;;;20.02;58.30;98683.56;5053611;28;20052;-61
2022/07/21 07:31:35;;;;;;;2.08;1.50;;;;;;;20.07;58.74;98687.28;5052002;28;20039;-61
2022/07/21 07:34:00;;;;;;;1.83;1.40;;;;;;;20.17;57.78;98681.41;5053322;28;20041;-61
2022/07/21 07:36:27;;;;;;;3.53;2.25;;;;;;;20.25;58.19;98698.50;5053359;28;20040;-61
2022/07/21 07:38:54;;;;;;;5.10;1.90;;;;;;;20.22;57.98;98678.84;5053195;28;20040;-64
2022/07/21 07:41:20;;;;;;;2.83;1.58;;;;;;;20.56;57.43;98707.78;5053739;28;20043;-60
2022/07/21 07:43:46;;;;;;;3.47;1.30;;;;;;;20.55;57.22;98700.69;5053409;28;20484;-61
2022/07/21 07:46:13;;;;;;;1.60;1.38;;;;;;;20.60;57.13;98714.47;5053071;28;20075;-59
2022/07/21 07:48:42;;;;;;;3.10;1.48;;;;;;;20.47;58.14;98712.66;5053450;28;20025;-60
2022/07/21 07:51:09;;;;;;;2.15;1.40;;;;;;;20.32;58.77;98716.47;5051798;28;20495;-62
2022/07/21 07:53:35;;;;;;;1.52;1.42;;;;;;;20.05;59.15;98719.25;5052917;28;20441;-61
2022/07/21 07:56:00;;;;;;;2.35;1.30;;;;;;;20.12;58.05;98729.28;5053053;28;20032;-61
2022/07/21 07:58:26;;;;;;;1.52;1.42;;;;;;;19.82;59.30;98727.00;5053139;28;20147;-59
2022/07/21 08:00:52;;;;;;;5.93;1.40;;;;;;;19.60;60.39;98740.81;5052954;28;20039;-63
2022/07/21 08:03:18;;;;;;;4.22;1.60;;;;;;;19.40;61.90;98741.66;5052895;28;20107;-61
2022/07/21 08:05:43;;;;;;;2.13;1.33;;;;;;;19.54;62.43;98756.09;5051598;28;20037;-60
2022/07/21 08:08:09;;;;;;;1.83;1.00;;;;;;;19.73;62.62;98753.53;5052834;28;20024;-61
2022/07/21 08:10:35;;;;;;;3.10;1.10;;;;;;;19.89;61.45;98755.84;5051511;28;20078;-62
2022/07/21 08:13:00;;;;;;;1.20;1.10;;;;;;;20.13;60.50;98753.53;5052392;28;20029;-60
2022/07/21 08:15:26;;;;;;;4.57;1.60;;;;;;;20.19;60.08;98765.44;5052746;28;20036;-61
2022/07/21 08:17:52;;;;;;;3.05;2.30;;;;;;;20.36;59.78;98763.09;5053011;28;20036;-60
2022/07/21 08:20:17;;;;;;;2.13;1.98;;;;;;;21.68;56.86;98760.06;5052663;28;20515;-61
2022/07/21 08:22:43;;;;;;;3.85;1.98;;;;;;;24.26;48.77;98749.84;5051319;28;20400;-61
2022/07/21 08:25:08;;;;;;;2.45;2.25;;;;;;;24.85;46.03;98745.31;5052624;28;20033;-62
2022/07/21 08:27:34;;;;;;;5.43;2.40;;;;;;;25.00;45.99;98762.00;5052074;28;20389;-60
2022/07/21 08:29:59;;;;;;;3.38;2.28;;;;;;;25.12;45.71;98761.13;5050929;28;20385;-60
2022/07/21 08:32:24;;;;;;;2.42;2.13;;;;;;;25.19;44.97;98756.31;5051049;28;20025;-61
2022/07/21 08:34:50;;;;;;;5.53;2.90;;;;;;;25.30;45.54;98762.81;5051448;28;20033;-61
2022/07/21 08:37:18;;;;;;;3.78;2.28;;;;;;;25.38;44.35;98759.66;5052192;28;20505;-61
2022/07/21 08:39:44;;;;;;;2.92;2.60;;;;;;;25.17;44.86;98745.59;5052210;28;20114;-59
2022/07/21 08:42:11;;;;;;;2.40;2.20;;;;;;;25.18;44.16;98754.66;5052010;28;20029;-60
2022/07/21 08:44:36;;;;;;;2.60;2.40;;;;;;;25.02;44.47;98778.22;5051941;28;20039;-59
2022/07/21 08:47:04;;;;;;;2.58;2.00;;;;;;;24.68;44.80;98787.09;5051925;28;20108;-60
2022/07/21 08:49:30;;;;;;;4.00;2.35;;;;;;;24.30;45.71;98793.94;5051869;28;20025;-60
2022/07/21 08:51:55;;;;;;;3.33;2.60;;;;;;;23.78;45.66;98787.25;5051967;28;20111;-60
2022/07/21 08:54:21;;;;;;;2.88;2.58;;;;;;;23.46;46.76;98807.50;5052013;28;20113;-60
2022/07/21 08:56:48;;;;;;;3.28;2.50;;;;;;;22.92;48.00;98796.50;5051881;28;20025;-60
2022/07/21 08:59:14;;;;;;;2.47;1.95;;;;;;;22.75;47.26;98799.88;5052051;28;20037;-60
2022/07/21 09:01:40;;;;;;;2.38;2.17;;;;;;;22.66;48.28;98806.69;5051633;28;20102;-62
2022/07/21 09:04:27;;;;;;;2.40;2.20;;;;;;;22.70;48.88;98809.78;5051455;28;20128;-61
2022/07/21 09:06:59;;;;;;;2.60;2.40;;;;;;;22.64;49.16;98806.91;5051802;28;20546;-60
2022/07/21 09:09:27;;;;;;;3.28;2.13;;;;;;;22.79;47.92;98814.72;5050509;28;20055;-61
2022/07/21 09:11:53;;;;;;;1.80;1.52;;;;;;;22.97;47.25;98813.03;5051800;28;20039;-61
2022/07/21 09:14:24;;;;;;;1.95;1.20;;;;;;;23.14;46.46;98809.63;5051683;28;20041;-61
2022/07/21 09:16:55;;;;;;;1.50;1.40;;;;;;;23.46;45.88;98820.34;5051634;28;20112;-61
2022/07/21 09:19:22;;;;;;;2.65;1.40;;;;;;;23.93;47.24;98811.41;5050105;28;20491;-62
2022/07/21 09:21:50;;;;;;;3.55;1.45;;;;;;;24.51;46.09;98819.84;5051497;28;20040;-61
2022/07/21 09:24:25;;;;;;;1.50;1.40;;;;;;;24.80;45.13;98826.22;5051208;28;20083;-61
2022/07/21 09:26:57;;;;;;;;;;;;;;;25.35;44.85;98825.91;5052017;28;20485;-60
2022/07/21 09:29:23;;;;;;;2.70;1.23;;;;;;;25.01;43.95;98820.34;5051431;28;19913;-59
2022/07/21 09:31:48;;;;;;;1.23;1.13;;;;;;;24.79;43.96;98830.03;5051132;28;20055;-60
2022/07/21 09:34:14;;;;;;;1.08;1.00;;;;;;;24.44;44.32;98832.81;5051327;28;20025;-61
2022/07/21 09:36:54;;;;;;;1.05;1.00;;;;;;;24.19;44.38;98842.09;5050049;28;20032;-63
2022/07/21 09:40:00;;;;;;;1.50;1.23;;;;;;;23.82;46.33;98859.50;5050327;28;20040;-61
2022/07/21 09:42:31;;;;;;;2.95;1.40;;;;;;;23.54;46.47;98846.50;5051088;28;20407;-60
2022/07/21 09:45:06;;;;;;;1.30;1.20;;;;;;;23.47;46.93;98852.06;5049627;28;20033;-61
2022/07/21 09:47:32;;;;;;;1.27;1.00;;;;;;;23.51;46.17;98853.25;5049713;28;20052;-61
2022/07/21 09:49:59;;;;;;;1.55;1.20;;;;;;;23.90;45.85;98850.13;5049501;28;20032;-64
2022/07/21 09:52:32;;;;;;;1.05;0.98;;;;;;;24.48;44.15;98851.25;5050029;28;20136;-59
2022/07/21 09:55:04;;;;;;;2.30;1.20;;;;;;;24.68;43.82;98855.50;5051387;28;20107;-61
2022/07/21 09:57:29;;;;;;;0.85;0.85;;;;;;;24.82;43.18;98849.78;5051011;28;20079;-60
2022/07/21 09:59:56;;;;;;;1.58;1.08;;;;;;;25.01;42.57;98854.03;5051160;28;20430;-61
2022/07/21 10:02:29;;;;;;;1.10;1.00;;;;;;;25.06;41.46;98851.38;5050947;28;20048;-60
2022/07/21 10:04:59;;;;;;;1.10;1.00;;;;;;;24.82;42.13;98860.75;5051154;28;20479;-60
2022/07/21 10:07:27;;;;;;;1.20;1.00;;;;;;;24.64;41.75;98873.50;5049749;28;20041;-60
2022/07/21 10:09:53;;;;;;;3.65;1.20;;;;;;;24.50;41.68;98865.53;5049358;28;20393;-62
2022/07/21 10:12:20;;;;;;;1.88;0.98;;;;;;;24.60;42.83;98861.38;5050847;28;20102;-60
2022/07/21 10:14:46;;;;;;;2.30;1.02;;;;;;;24.85;41.07;98860.28;5050766;28;20104;-60
2022/07/21 10:17:14;;;;;;;1.63;1.10;;;;;;;25.18;40.93;98877.91;5050591;28;20136;-60
2022/07/21 10:19:52;;;;;;;1.17;1.02;;;;;;;25.56;39.32;98884.72;5050479;28;20028;-62
2022/07/21 10:22:47;;;;;;;0.90;0.90;;;;;;;25.48;39.92;98891.41;5050614;28;20033;-61
2022/07/21 10:25:14;;;;;;;1.25;1.05;;;;;;;25.19;39.31;98885.06;5050514;28;20095;-61
2022/07/21 10:28:11;;;;;;;1.38;1.02;;;;;;;25.21;40.15;98894.72;5050166;28;20392;-62
2022/07/21 10:30:38;;;;;;;3.55;1.20;;;;;;;25.07;39.73;98890.56;5050212;28;20207;-61
2022/07/21 10:33:04;;;;;;;1.92;1.20;;;;;;;25.12;39.49;98881.63;5050222;28;20040;-61
2022/07/21 10:35:31;;;;;;;1.50;1.40;;;;;;;25.14;38.39;98891.25;5050624;28;20461;-60
2022/07/21 10:38:01;;;;;;;1.17;0.93;;;;;;;24.71;39.58;98900.72;5050637;28;20037;-61
2022/07/21 10:40:26;;;;;;;1.80;1.20;;;;;;;24.48;39.83;98878.63;5050904;28;20079;-59
2022/07/21 10:43:01;;;;;;;3.45;1.60;;;;;;;24.47;40.13;98884.31;5050098;28;20069;-61
2022/07/21 10:45:38;;;;;;;1.60;1.10;;;;;;;24.57;40.77;98880.97;5050291;28;20036;-61
2022/07/21 10:48:28;;;;;;;1.30;1.20;;;;;;;25.07;38.63;98916.03;5050472;28;20457;-62
2022/07/21 10:50:58;;;;;;;1.15;0.93;;;;;;;25.29;37.44;98904.41;5051953;28;20029;-61
2022/07/21 10:53:23;;;;;;;1.00;1.00;;;;;;;25.05;36.70;98893.53;5053597;28;20037;-62
2022/07/21 10:55:53;;;;;;;3.67;1.30;;;;;;;25.03;37.56;98903.91;5053244;28;20036;-62
2022/07/21 10:58:27;;;;;;;1.25;1.00;;;;;;;25.20;37.96;98889.47;5054041;28;20103;-60
2022/07/21 11:00:56;;;;;;;1.30;1.13;;;;;;;25.21;37.69;98902.06;5053789;28;20058;-61
2022/07/21 11:03:31;;;;;;;1.75;1.10;;;;;;;24.68;38.87;98902.03;5053738;28;20102;-60
2022/07/21 11:06:06;;;;;;;1.92;1.45;;;;;;;24.31;40.17;98907.75;5053814;28;20041;-62
2022/07/21 11:08:37;;;;;;;1.77;1.40;;;;;;;23.90;42.74;98924.78;5053839;28;20047;-61
2022/07/21 11:11:10;;;;;;;3.50;1.50;;;;;;;23.60;44.90;98922.06;5053994;28;20049;-64
2022/07/21 11:14:00;;;;;;;2.58;1.55;;;;;;;23.26;47.63;98930.72;5053670;28;20037;-61
2022/07/21 11:16:46;;;;;;;3.42;1.67;;;;;;;22.59;52.46;98936.88;5053614;28;20029;-60
2022/07/21 11:19:29;;;;;;;2.28;1.33;;;;;;;22.29;51.48;98948.44;5053660;28;20036;-61
2022/07/21 11:21:56;;;;;;;5.55;1.90;;;;;;;22.49;48.72;98951.00;5053584;28;20116;-60
2022/07/21 11:24:23;;;;;;;2.05;1.33;;;;;;;22.37;48.61;98948.16;5052114;28;20028;-62
2022/07/21 11:27:04;;;;;;;5.28;1.75;;;;;;;22.44;47.70;98924.41;5053316;28;20115;-60
2022/07/21 11:29:31;;;;;;;6.40;1.60;;;;;;;22.52;47.81;98939.66;5054069;28;20442;-61
2022/07/21 11:32:01;;;;;;;3.28;1.23;;;;;;;22.85;47.21;98948.56;5052294;28;20032;-59
2022/07/21 11:34:37;;;;;;;2.45;1.40;;;;;;;23.36;44.92;98961.03;5053258;28;20033;-61
2022/07/21 11:37:03;;;;;;;2.08;1.50;;;;;;;23.24;43.63;98954.66;5053654;28;20032;-60